sensor_id;sensor_type;location;lat;lon;timestamp;pressure;altitude;pressure_sealevel;temperature;humidity
30021;BME280;16861;52.294;7.760;2023-04-21T00:00:58;99793.47;;;11.75;56.61
30021;BME280;16861;52.294;7.760;2023-04-21T00:03:25;99781.22;;;11.73;56.82
30021;BME280;16861;52.294;7.760;2023-04-21T00:05:56;99782.25;;;11.71;57.75
30021;BME280;16861;52.294;7.760;2023-04-21T00:08:24;99774.34;;;11.71;56.96
30021;BME280;16861;52.294;7.760;2023-04-21T00:10:52;99771.72;;;11.71;57.07
30021;BME280;16861;52.294;7.760;2023-04-21T00:13:18;99770.03;;;11.70;57.28
30021;BME280;16861;52.294;7.760;2023-04-21T00:15:45;99769.25;;;11.68;57.41
30021;BME280;16861;52.294;7.760;2023-04-21T00:18:11;99758.72;;;11.68;57.47
30021;BME280;16861;52.294;7.760;2023-04-21T00:20:38;99765.75;;;11.67;57.36
30021;BME280;16861;52.294;7.760;2023-04-21T00:23:05;99755.34;;;11.66;57.36
30021;BME280;16861;52.294;7.760;2023-04-21T00:25:31;99753.63;;;11.65;57.60
30021;BME280;16861;52.294;7.760;2023-04-21T00:27:58;99747.53;;;11.64;57.50
30021;BME280;16861;52.294;7.760;2023-04-21T00:30:25;99744.13;;;11.62;57.66
30021;BME280;16861;52.294;7.760;2023-04-21T00:32:51;99742.44;;;11.61;57.88
30021;BME280;16861;52.294;7.760;2023-04-21T00:35:18;99740.84;;;11.58;57.99
30021;BME280;16861;52.294;7.760;2023-04-21T00:37:44;99741.69;;;11.59;58.07
30021;BME280;16861;52.294;7.760;2023-04-21T00:40:11;99740.91;;;11.57;58.18
30021;BME280;16861;52.294;7.760;2023-04-21T00:42:38;99733.09;;;11.55;58.27
30021;BME280;16861;52.294;7.760;2023-04-21T00:45:05;99736.69;;;11.54;58.53
30021;BME280;16861;52.294;7.760;2023-04-21T00:47:32;99736.69;;;11.54;58.51
30021;BME280;16861;52.294;7.760;2023-04-21T00:49:59;99745.53;;;11.53;58.58
30021;BME280;16861;52.294;7.760;2023-04-21T00:52:26;99743.00;;;11.52;58.71
30021;BME280;16861;52.294;7.760;2023-04-21T00:54:53;99744.78;;;11.51;58.70
30021;BME280;16861;52.294;7.760;2023-04-21T00:57:20;99743.94;;;11.51;58.70
30021;BME280;16861;52.294;7.760;2023-04-21T00:59:48;99744.03;;;11.49;58.71
30021;BME280;16861;52.294;7.760;2023-04-21T01:02:16;99737.06;;;11.48;58.89
30021;BME280;16861;52.294;7.760;2023-04-21T01:04:43;99744.13;;;11.47;58.79
30021;BME280;16861;52.294;7.760;2023-04-21T01:07:11;99724.00;;;11.46;58.86
30021;BME280;16861;52.294;7.760;2023-04-21T01:09:38;99733.66;;;11.46;58.89
30021;BME280;16861;52.294;7.760;2023-04-21T01:12:09;99733.75;;;11.44;59.90
30021;BME280;16861;52.294;7.760;2023-04-21T01:14:38;99731.13;;;11.44;59.09
30021;BME280;16861;52.294;7.760;2023-04-21T01:17:06;99731.22;;;11.43;59.16
30021;BME280;16861;52.294;7.760;2023-04-21T01:19:39;99731.44;;;11.40;60.28
30021;BME280;16861;52.294;7.760;2023-04-21T01:22:08;99721.72;;;11.40;59.07
30021;BME280;16861;52.294;7.760;2023-04-21T01:24:46;99736.88;;;11.37;60.96
30021;BME280;16861;52.294;7.760;2023-04-21T01:27:16;99725.38;;;11.38;59.71
30021;BME280;16861;52.294;7.760;2023-04-21T01:29:49;99729.69;;;11.39;59.30
30021;BME280;16861;52.294;7.760;2023-04-21T01:32:35;99735.09;;;11.37;60.01
30021;BME280;16861;52.294;7.760;2023-04-21T01:35:02;99732.47;;;11.37;59.38
30021;BME280;16861;52.294;7.760;2023-04-21T01:37:30;99739.50;;;11.37;59.78
30021;BME280;16861;52.294;7.760;2023-04-21T01:39:59;99729.91;;;11.36;59.81
30021;BME280;16861;52.294;7.760;2023-04-21T01:42:27;99716.75;;;11.36;59.65
30021;BME280;16861;52.294;7.760;2023-04-21T01:44:55;99711.47;;;11.36;59.56
30021;BME280;16861;52.294;7.760;2023-04-21T01:47:23;99721.16;;;11.35;59.65
30021;BME280;16861;52.294;7.760;2023-04-21T01:49:50;99727.38;;;11.34;59.63
30021;BME280;16861;52.294;7.760;2023-04-21T01:52:16;99723.78;;;11.35;59.59
30021;BME280;16861;52.294;7.760;2023-04-21T01:54:43;99722.94;;;11.34;59.46
30021;BME280;16861;52.294;7.760;2023-04-21T01:57:09;99729.16;;;11.33;59.62
30021;BME280;16861;52.294;7.760;2023-04-21T01:59:36;99736.22;;;11.33;59.68
30021;BME280;16861;52.294;7.760;2023-04-21T02:02:03;99730.09;;;11.32;59.82
30021;BME280;16861;52.294;7.760;2023-04-21T02:04:30;99732.81;;;11.31;59.92
30021;BME280;16861;52.294;7.760;2023-04-21T02:06:57;99733.69;;;11.31;59.77
30021;BME280;16861;52.294;7.760;2023-04-21T02:09:23;99725.84;;;11.30;59.93
30021;BME280;16861;52.294;7.760;2023-04-21T02:11:50;99726.81;;;11.29;59.77
30021;BME280;16861;52.294;7.760;2023-04-21T02:14:17;99725.94;;;11.28;59.85
30021;BME280;16861;52.294;7.760;2023-04-21T02:16:43;99729.53;;;11.27;59.90
30021;BME280;16861;52.294;7.760;2023-04-21T02:19:10;99738.38;;;11.26;60.00
30021;BME280;16861;52.294;7.760;2023-04-21T02:21:37;99736.66;;;11.25;59.88
30021;BME280;16861;52.294;7.760;2023-04-21T02:24:03;99736.66;;;11.25;60.08
30021;BME280;16861;52.294;7.760;2023-04-21T02:26:30;99726.22;;;11.24;60.15
30021;BME280;16861;52.294;7.760;2023-04-21T02:28:57;99734.97;;;11.24;60.25
30021;BME280;16861;52.294;7.760;2023-04-21T02:31:23;99736.88;;;11.22;60.10
30021;BME280;16861;52.294;7.760;2023-04-21T02:33:50;99732.50;;;11.21;60.04
30021;BME280;16861;52.294;7.760;2023-04-21T02:36:17;99731.78;;;11.19;60.16
30021;BME280;16861;52.294;7.760;2023-04-21T02:38:43;99729.22;;;11.17;60.23
30021;BME280;16861;52.294;7.760;2023-04-21T02:41:10;99724.03;;;11.16;60.24
30021;BME280;16861;52.294;7.760;2023-04-21T02:43:36;99726.69;;;11.16;60.44
30021;BME280;16861;52.294;7.760;2023-04-21T02:46:06;99729.41;;;11.14;61.64
30021;BME280;16861;52.294;7.760;2023-04-21T02:48:34;99727.53;;;11.16;60.72
30021;BME280;16861;52.294;7.760;2023-04-21T02:51:01;99731.00;;;11.17;60.43
30021;BME280;16861;52.294;7.760;2023-04-21T02:53:29;99735.34;;;11.18;60.41
30021;BME280;16861;52.294;7.760;2023-04-21T02:55:56;99737.91;;;11.19;60.58
30021;BME280;16861;52.294;7.760;2023-04-21T02:58:23;99738.72;;;11.20;60.45
30021;BME280;16861;52.294;7.760;2023-04-21T03:00:50;99733.47;;;11.20;60.64
30021;BME280;16861;52.294;7.760;2023-04-21T03:03:17;99735.16;;;11.21;60.69
30021;BME280;16861;52.294;7.760;2023-04-21T03:05:44;99732.50;;;11.21;60.69
30021;BME280;16861;52.294;7.760;2023-04-21T03:08:10;99733.38;;;11.21;60.71
30021;BME280;16861;52.294;7.760;2023-04-21T03:10:37;99740.34;;;11.23;60.68
30021;BME280;16861;52.294;7.760;2023-04-21T03:13:04;99742.13;;;11.22;60.69
30021;BME280;16861;52.294;7.760;2023-04-21T03:15:30;99747.41;;;11.22;60.72
30021;BME280;16861;52.294;7.760;2023-04-21T03:17:57;99755.31;;;11.22;60.67
30021;BME280;16861;52.294;7.760;2023-04-21T03:20:23;99752.75;;;11.20;60.81
30021;BME280;16861;52.294;7.760;2023-04-21T03:22:52;99746.63;;;11.20;61.14
30021;BME280;16861;52.294;7.760;2023-04-21T03:25:19;99747.50;;;11.20;60.63
30021;BME280;16861;52.294;7.760;2023-04-21T03:27:45;99754.53;;;11.20;60.77
30021;BME280;16861;52.294;7.760;2023-04-21T03:30:12;99754.53;;;11.20;61.14
30021;BME280;16861;52.294;7.760;2023-04-21T03:32:38;99752.00;;;11.18;61.16
30021;BME280;16861;52.294;7.760;2023-04-21T03:35:05;99752.69;;;11.22;61.12
30021;BME280;16861;52.294;7.760;2023-04-21T03:37:31;99754.44;;;11.21;61.10
30021;BME280;16861;52.294;7.760;2023-04-21T03:39:58;99754.38;;;11.23;60.93
30021;BME280;16861;52.294;7.760;2023-04-21T03:42:24;99763.09;;;11.24;61.14
30021;BME280;16861;52.294;7.760;2023-04-21T03:44:51;99752.56;;;11.24;61.17
30021;BME280;16861;52.294;7.760;2023-04-21T03:47:17;99757.00;;;11.23;61.06
30021;BME280;16861;52.294;7.760;2023-04-21T03:49:44;99759.63;;;11.23;61.06
30021;BME280;16861;52.294;7.760;2023-04-21T03:52:10;99760.59;;;11.22;61.00
30021;BME280;16861;52.294;7.760;2023-04-21T03:54:37;99752.75;;;11.20;60.91
30021;BME280;16861;52.294;7.760;2023-04-21T03:57:03;99753.72;;;11.19;60.93
30021;BME280;16861;52.294;7.760;2023-04-21T03:59:30;99747.66;;;11.17;61.07
30021;BME280;16861;52.294;7.760;2023-04-21T04:01:56;99751.25;;;11.16;60.85
30021;BME280;16861;52.294;7.760;2023-04-21T04:04:23;99748.63;;;11.16;61.00
30021;BME280;16861;52.294;7.760;2023-04-21T04:06:49;99752.38;;;11.12;61.10
30021;BME280;16861;52.294;7.760;2023-04-21T04:09:16;99748.88;;;11.12;60.96
30021;BME280;16861;52.294;7.760;2023-04-21T04:11:42;99753.41;;;11.10;61.09
30021;BME280;16861;52.294;7.760;2023-04-21T04:14:09;99750.09;;;11.06;61.27
30021;BME280;16861;52.294;7.760;2023-04-21T04:16:35;99747.44;;;11.06;61.05
30021;BME280;16861;52.294;7.760;2023-04-21T04:19:02;99747.56;;;11.04;61.45
30021;BME280;16861;52.294;7.760;2023-04-21T04:21:28;99745.03;;;11.03;61.37
30021;BME280;16861;52.294;7.760;2023-04-21T04:23:56;99745.03;;;11.03;61.43
30021;BME280;16861;52.294;7.760;2023-04-21T04:26:22;99745.94;;;11.02;61.29
30021;BME280;16861;52.294;7.760;2023-04-21T04:28:53;99745.09;;;11.01;62.19
30021;BME280;16861;52.294;7.760;2023-04-21T04:31:21;99744.16;;;11.02;61.56
30021;BME280;16861;52.294;7.760;2023-04-21T04:33:51;99752.06;;;11.02;61.49
30021;BME280;16861;52.294;7.760;2023-04-21T04:36:20;99746.06;;;11.00;61.41
30021;BME280;16861;52.294;7.760;2023-04-21T04:38:47;99740.78;;;11.00;61.48
30021;BME280;16861;52.294;7.760;2023-04-21T04:41:13;99746.88;;;11.01;61.58
30021;BME280;16861;52.294;7.760;2023-04-21T04:43:42;99749.50;;;11.01;61.59
30021;BME280;16861;52.294;7.760;2023-04-21T04:46:09;99756.47;;;11.02;61.66
30021;BME280;16861;52.294;7.760;2023-04-21T04:48:36;99753.00;;;11.01;61.61
30021;BME280;16861;52.294;7.760;2023-04-21T04:51:03;99751.19;;;11.02;61.72
30021;BME280;16861;52.294;7.760;2023-04-21T04:53:29;99753.84;;;11.02;61.74
30021;BME280;16861;52.294;7.760;2023-04-21T04:55:57;99753.00;;;11.01;62.04
30021;BME280;16861;52.294;7.760;2023-04-21T04:58:24;99749.44;;;11.02;61.79
30021;BME280;16861;52.294;7.760;2023-04-21T05:00:51;99750.38;;;11.01;61.88
30021;BME280;16861;52.294;7.760;2023-04-21T05:03:17;99753.75;;;11.03;61.93
30021;BME280;16861;52.294;7.760;2023-04-21T05:05:44;99757.97;;;11.06;61.99
30021;BME280;16861;52.294;7.760;2023-04-21T05:08:11;99756.13;;;11.08;62.10
30021;BME280;16861;52.294;7.760;2023-04-21T05:10:37;99753.41;;;11.10;62.16
30021;BME280;16861;52.294;7.760;2023-04-21T05:13:04;99760.19;;;11.14;62.10
30021;BME280;16861;52.294;7.760;2023-04-21T05:15:30;99763.56;;;11.16;62.11
30021;BME280;16861;52.294;7.760;2023-04-21T05:17:56;99761.69;;;11.18;62.09
30021;BME280;16861;52.294;7.760;2023-04-21T05:20:23;99762.34;;;11.21;62.17
30021;BME280;16861;52.294;7.760;2023-04-21T05:22:49;99766.59;;;11.24;62.40
30021;BME280;16861;52.294;7.760;2023-04-21T05:25:16;99768.19;;;11.27;62.21
30021;BME280;16861;52.294;7.760;2023-04-21T05:27:42;99772.25;;;11.32;62.31
30021;BME280;16861;52.294;7.760;2023-04-21T05:30:09;99766.03;;;11.33;62.37
30021;BME280;16861;52.294;7.760;2023-04-21T05:32:36;99769.34;;;11.37;62.29
30021;BME280;16861;52.294;7.760;2023-04-21T05:35:02;99771.78;;;11.40;62.23
30021;BME280;16861;52.294;7.760;2023-04-21T05:37:29;99772.34;;;11.45;62.34
30021;BME280;16861;52.294;7.760;2023-04-21T05:39:55;99771.34;;;11.48;62.31
30021;BME280;16861;52.294;7.760;2023-04-21T05:42:22;99773.69;;;11.53;62.21
30021;BME280;16861;52.294;7.760;2023-04-21T05:44:48;99773.50;;;11.56;62.36
30021;BME280;16861;52.294;7.760;2023-04-21T05:47:15;99777.56;;;11.62;62.34
30021;BME280;16861;52.294;7.760;2023-04-21T05:49:41;99781.72;;;11.66;62.27
30021;BME280;16861;52.294;7.760;2023-04-21T05:52:15;99781.41;;;11.70;62.29
30021;BME280;16861;52.294;7.760;2023-04-21T05:54:42;99776.81;;;11.74;62.25
30021;BME280;16861;52.294;7.760;2023-04-21T05:57:09;99779.06;;;11.80;62.40
30021;BME280;16861;52.294;7.760;2023-04-21T05:59:36;99776.97;;;11.85;62.28
30021;BME280;16861;52.294;7.760;2023-04-21T06:02:02;99772.34;;;11.89;62.29
30021;BME280;16861;52.294;7.760;2023-04-21T06:04:29;99776.59;;;11.92;62.26
30021;BME280;16861;52.294;7.760;2023-04-21T06:06:56;99785.81;;;11.99;62.02
30021;BME280;16861;52.294;7.760;2023-04-21T06:09:22;99777.72;;;12.02;62.24
30021;BME280;16861;52.294;7.760;2023-04-21T06:11:49;99775.81;;;12.04;62.12
30021;BME280;16861;52.294;7.760;2023-04-21T06:14:16;99776.53;;;12.08;62.13
30021;BME280;16861;52.294;7.760;2023-04-21T06:16:42;99776.22;;;12.12;62.12
30021;BME280;16861;52.294;7.760;2023-04-21T06:19:09;99774.16;;;12.18;62.41
30021;BME280;16861;52.294;7.760;2023-04-21T06:21:35;99775.53;;;12.23;62.65
30021;BME280;16861;52.294;7.760;2023-04-21T06:24:02;99769.78;;;12.31;62.55
30021;BME280;16861;52.294;7.760;2023-04-21T06:26:29;99775.41;;;12.40;62.53
30021;BME280;16861;52.294;7.760;2023-04-21T06:28:55;99781.78;;;12.50;62.86
30021;BME280;16861;52.294;7.760;2023-04-21T06:31:22;99774.22;;;12.58;62.25
30021;BME280;16861;52.294;7.760;2023-04-21T06:33:48;99765.78;;;12.66;62.09
30021;BME280;16861;52.294;7.760;2023-04-21T06:36:15;99760.13;;;12.72;61.88
30021;BME280;16861;52.294;7.760;2023-04-21T06:38:43;99762.34;;;12.79;61.79
30021;BME280;16861;52.294;7.760;2023-04-21T06:41:10;99769.75;;;12.86;61.71
30021;BME280;16861;52.294;7.760;2023-04-21T06:43:36;99763.41;;;12.89;61.68
30021;BME280;16861;52.294;7.760;2023-04-21T06:46:03;99756.88;;;12.95;61.49
30021;BME280;16861;52.294;7.760;2023-04-21T06:48:29;99761.00;;;12.99;61.42
30021;BME280;16861;52.294;7.760;2023-04-21T06:50:56;99756.34;;;13.02;61.13
30021;BME280;16861;52.294;7.760;2023-04-21T06:53:23;99752.69;;;13.05;61.21
30021;BME280;16861;52.294;7.760;2023-04-21T06:55:49;99750.66;;;13.09;61.30
30021;BME280;16861;52.294;7.760;2023-04-21T06:58:16;99750.34;;;13.13;61.19
30021;BME280;16861;52.294;7.760;2023-04-21T07:00:45;99753.53;;;13.19;61.05
30021;BME280;16861;52.294;7.760;2023-04-21T07:03:11;99747.19;;;13.21;61.29
30021;BME280;16861;52.294;7.760;2023-04-21T07:05:38;99746.84;;;13.26;60.90
30021;BME280;16861;52.294;7.760;2023-04-21T07:08:04;99750.97;;;13.30;60.91
30021;BME280;16861;52.294;7.760;2023-04-21T07:10:31;99749.72;;;13.36;61.27
30021;BME280;16861;52.294;7.760;2023-04-21T07:12:57;99748.47;;;13.41;61.21
30021;BME280;16861;52.294;7.760;2023-04-21T07:15:24;99755.06;;;13.49;61.08
30021;BME280;16861;52.294;7.760;2023-04-21T07:17:50;99754.50;;;13.57;60.86
30021;BME280;16861;52.294;7.760;2023-04-21T07:20:17;99748.78;;;13.63;60.68
30021;BME280;16861;52.294;7.760;2023-04-21T07:22:44;99751.84;;;13.70;60.83
30021;BME280;16861;52.294;7.760;2023-04-21T07:25:10;99746.84;;;13.78;60.71
30021;BME280;16861;52.294;7.760;2023-04-21T07:27:38;99745.59;;;13.84;60.40
30021;BME280;16861;52.294;7.760;2023-04-21T07:30:05;99739.84;;;13.90;60.37
30021;BME280;16861;52.294;7.760;2023-04-21T07:32:32;99736.78;;;13.96;60.13
30021;BME280;16861;52.294;7.760;2023-04-21T07:34:59;99746.06;;;14.02;60.22
30021;BME280;16861;52.294;7.760;2023-04-21T07:37:30;99750.19;;;14.06;60.23
30021;BME280;16861;52.294;7.760;2023-04-21T07:39:56;99740.13;;;14.11;59.99
30021;BME280;16861;52.294;7.760;2023-04-21T07:42:26;99746.66;;;14.18;60.20
30021;BME280;16861;52.294;7.760;2023-04-21T07:44:52;99741.88;;;14.24;59.92
30021;BME280;16861;52.294;7.760;2023-04-21T07:47:21;99739.63;;;14.30;60.27
30021;BME280;16861;52.294;7.760;2023-04-21T07:49:52;99731.31;;;14.35;60.46
30021;BME280;16861;52.294;7.760;2023-04-21T07:52:19;99732.34;;;14.45;60.07
30021;BME280;16861;52.294;7.760;2023-04-21T07:54:45;99740.44;;;14.55;59.73
30021;BME280;16861;52.294;7.760;2023-04-21T07:57:12;99738.06;;;14.64;59.64
30021;BME280;16861;52.294;7.760;2023-04-21T07:59:38;99741.84;;;14.72;60.01
30021;BME280;16861;52.294;7.760;2023-04-21T08:02:05;99735.03;;;14.81;59.44
30021;BME280;16861;52.294;7.760;2023-04-21T08:04:31;99729.06;;;14.91;59.19
30021;BME280;16861;52.294;7.760;2023-04-21T08:06:58;99721.34;;;14.99;59.38
30021;BME280;16861;52.294;7.760;2023-04-21T08:09:26;99732.22;;;15.07;59.16
30021;BME280;16861;52.294;7.760;2023-04-21T08:11:52;99732.25;;;15.19;59.29
30021;BME280;16861;52.294;7.760;2023-04-21T08:14:20;99731.53;;;15.28;58.98
30021;BME280;16861;52.294;7.760;2023-04-21T08:16:47;99729.88;;;15.39;58.56
30021;BME280;16861;52.294;7.760;2023-04-21T08:19:13;99723.72;;;15.49;58.42
30021;BME280;16861;52.294;7.760;2023-04-21T08:21:40;99726.59;;;15.58;58.44
30021;BME280;16861;52.294;7.760;2023-04-21T08:24:06;99723.25;;;15.67;58.38
30021;BME280;16861;52.294;7.760;2023-04-21T08:26:34;99724.19;;;15.77;58.25
30021;BME280;16861;52.294;7.760;2023-04-21T08:29:00;99721.66;;;15.87;57.73
30021;BME280;16861;52.294;7.760;2023-04-21T08:31:29;99729.88;;;15.96;57.35
30021;BME280;16861;52.294;7.760;2023-04-21T08:33:56;99732.88;;;16.02;56.94
30021;BME280;16861;52.294;7.760;2023-04-21T08:36:28;99726.47;;;16.05;56.48
30021;BME280;16861;52.294;7.760;2023-04-21T08:38:56;99730.81;;;16.06;56.37
30021;BME280;16861;52.294;7.760;2023-04-21T08:41:24;99733.34;;;16.08;56.50
30021;BME280;16861;52.294;7.760;2023-04-21T08:43:51;99723.44;;;16.10;56.27
30021;BME280;16861;52.294;7.760;2023-04-21T08:46:18;99725.00;;;16.12;56.43
30021;BME280;16861;52.294;7.760;2023-04-21T08:48:45;99733.81;;;16.13;56.42
30021;BME280;16861;52.294;7.760;2023-04-21T08:51:17;99733.56;;;16.16;56.52
30021;BME280;16861;52.294;7.760;2023-04-21T08:53:46;99734.03;;;16.21;56.77
30021;BME280;16861;52.294;7.760;2023-04-21T08:56:12;99730.16;;;16.25;56.78
30021;BME280;16861;52.294;7.760;2023-04-21T08:58:39;99727.84;;;16.32;56.73
30021;BME280;16861;52.294;7.760;2023-04-21T09:01:06;99728.19;;;16.39;56.74
30021;BME280;16861;52.294;7.760;2023-04-21T09:03:33;99734.69;;;16.46;56.52
30021;BME280;16861;52.294;7.760;2023-04-21T09:06:02;99726.78;;;16.56;56.30
30021;BME280;16861;52.294;7.760;2023-04-21T09:08:31;99728.53;;;16.67;55.87
30021;BME280;16861;52.294;7.760;2023-04-21T09:10:59;99729.47;;;16.77;55.78
30021;BME280;16861;52.294;7.760;2023-04-21T09:13:31;99738.63;;;16.85;55.22
30021;BME280;16861;52.294;7.760;2023-04-21T09:15:59;99728.66;;;16.98;55.83
30021;BME280;16861;52.294;7.760;2023-04-21T09:18:28;99736.69;;;17.08;55.67
30021;BME280;16861;52.294;7.760;2023-04-21T09:21:49;99734.69;;;17.22;55.67
30021;BME280;16861;52.294;7.760;2023-04-21T09:24:03;99733.50;;;17.36;54.81
30021;BME280;16861;52.294;7.760;2023-04-21T09:26:31;99734.13;;;17.49;55.20
30021;BME280;16861;52.294;7.760;2023-04-21T09:29:05;99728.00;;;17.58;54.37
30021;BME280;16861;52.294;7.760;2023-04-21T09:31:34;99731.56;;;17.69;54.10
30021;BME280;16861;52.294;7.760;2023-04-21T09:34:01;99731.72;;;17.77;54.05
30021;BME280;16861;52.294;7.760;2023-04-21T09:36:29;99727.53;;;17.84;53.68
30021;BME280;16861;52.294;7.760;2023-04-21T09:38:59;99723.34;;;17.92;53.46
30021;BME280;16861;52.294;7.760;2023-04-21T09:41:30;99720.72;;;18.02;53.56
30021;BME280;16861;52.294;7.760;2023-04-21T09:43:57;99720.06;;;18.09;53.21
30021;BME280;16861;52.294;7.760;2023-04-21T09:46:42;99722.03;;;18.17;52.55
30021;BME280;16861;52.294;7.760;2023-04-21T09:49:12;99716.44;;;18.20;52.63
30021;BME280;16861;52.294;7.760;2023-04-21T09:51:41;99722.19;;;18.26;52.54
30021;BME280;16861;52.294;7.760;2023-04-21T09:54:32;99722.75;;;18.29;51.55
30021;BME280;16861;52.294;7.760;2023-04-21T09:57:02;99715.06;;;18.36;52.02
30021;BME280;16861;52.294;7.760;2023-04-21T09:59:35;99711.69;;;18.44;52.24
30021;BME280;16861;52.294;7.760;2023-04-21T10:02:06;99712.50;;;18.54;51.73
30021;BME280;16861;52.294;7.760;2023-04-21T10:04:35;99702.41;;;18.68;52.57
30021;BME280;16861;52.294;7.760;2023-04-21T10:07:02;99702.66;;;18.84;52.85
30021;BME280;16861;52.294;7.760;2023-04-21T10:09:38;99684.53;;;18.98;51.64
30021;BME280;16861;52.294;7.760;2023-04-21T10:12:08;99678.19;;;19.19;51.68
30021;BME280;16861;52.294;7.760;2023-04-21T10:14:35;99680.38;;;19.33;51.86
30021;BME280;16861;52.294;7.760;2023-04-21T10:17:09;99679.75;;;19.49;51.35
30021;BME280;16861;52.294;7.760;2023-04-21T10:19:37;99681.66;;;19.67;50.51
30021;BME280;16861;52.294;7.760;2023-04-21T10:22:12;99673.97;;;19.82;50.04
30021;BME280;16861;52.294;7.760;2023-04-21T10:24:40;99677.94;;;19.96;50.84
30021;BME280;16861;52.294;7.760;2023-04-21T10:27:11;99677.25;;;20.04;49.35
30021;BME280;16861;52.294;7.760;2023-04-21T10:29:38;99674.03;;;20.18;51.32
30021;BME280;16861;52.294;7.760;2023-04-21T10:32:40;99664.63;;;20.33;51.12
30021;BME280;16861;52.294;7.760;2023-04-21T10:35:15;99664.81;;;20.57;50.26
30021;BME280;16861;52.294;7.760;2023-04-21T10:37:47;99657.47;;;20.78;48.73
30021;BME280;16861;52.294;7.760;2023-04-21T10:43:41;99642.16;;;21.15;48.28
30021;BME280;16861;52.294;7.760;2023-04-21T10:46:33;99651.94;;;21.32;48.08
30021;BME280;16861;52.294;7.760;2023-04-21T10:49:07;99638.59;;;21.49;47.29
30021;BME280;16861;52.294;7.760;2023-04-21T10:54:26;99635.22;;;21.82;47.68
30021;BME280;16861;52.294;7.760;2023-04-21T10:56:54;99639.28;;;22.03;48.35
30021;BME280;16861;52.294;7.760;2023-04-21T10:59:22;99632.59;;;22.32;48.44
30021;BME280;16861;52.294;7.760;2023-04-21T11:01:49;99627.06;;;22.67;47.31
30021;BME280;16861;52.294;7.760;2023-04-21T11:04:19;99628.50;;;23.02;46.31
30021;BME280;16861;52.294;7.760;2023-04-21T11:07:18;99616.28;;;23.48;46.37
30021;BME280;16861;52.294;7.760;2023-04-21T11:09:46;99615.31;;;23.96;45.28
30021;BME280;16861;52.294;7.760;2023-04-21T11:12:15;99606.31;;;24.36;43.43
30021;BME280;16861;52.294;7.760;2023-04-21T11:14:44;99604.13;;;24.69;42.65
30021;BME280;16861;52.294;7.760;2023-04-21T11:17:17;99601.75;;;24.90;40.33
30021;BME280;16861;52.294;7.760;2023-04-21T11:19:55;99602.09;;;25.02;41.24
30021;BME280;16861;52.294;7.760;2023-04-21T11:22:23;99598.84;;;25.21;41.06
30021;BME280;16861;52.294;7.760;2023-04-21T11:24:53;99602.94;;;25.32;39.57
30021;BME280;16861;52.294;7.760;2023-04-21T11:27:20;99593.72;;;25.42;39.88
30021;BME280;16861;52.294;7.760;2023-04-21T11:29:50;99586.81;;;25.54;39.92
30021;BME280;16861;52.294;7.760;2023-04-21T11:32:17;99580.75;;;25.67;39.43
30021;BME280;16861;52.294;7.760;2023-04-21T11:34:44;99573.44;;;25.83;39.39
30021;BME280;16861;52.294;7.760;2023-04-21T11:37:22;99580.56;;;25.91;37.56
30021;BME280;16861;52.294;7.760;2023-04-21T11:39:49;99583.75;;;26.01;38.08
30021;BME280;16861;52.294;7.760;2023-04-21T11:42:20;99567.00;;;26.06;37.79
30021;BME280;16861;52.294;7.760;2023-04-21T11:44:48;99556.69;;;26.16;37.82
30021;BME280;16861;52.294;7.760;2023-04-21T11:47:16;99562.38;;;26.21;37.47
30021;BME280;16861;52.294;7.760;2023-04-21T11:49:55;99556.56;;;26.24;37.65
30021;BME280;16861;52.294;7.760;2023-04-21T11:52:33;99550.22;;;26.32;37.28
30021;BME280;16861;52.294;7.760;2023-04-21T11:55:11;99549.28;;;26.47;36.90
30021;BME280;16861;52.294;7.760;2023-04-21T11:57:40;99551.00;;;26.54;36.37
30021;BME280;16861;52.294;7.760;2023-04-21T12:00:09;99534.75;;;26.48;35.67
30021;BME280;16861;52.294;7.760;2023-04-21T12:02:37;99542.56;;;26.36;36.35
30021;BME280;16861;52.294;7.760;2023-04-21T12:05:06;99534.16;;;26.24;35.73
30021;BME280;16861;52.294;7.760;2023-04-21T12:07:36;99532.22;;;26.18;36.98
30021;BME280;16861;52.294;7.760;2023-04-21T12:10:16;99528.31;;;26.20;36.42
30021;BME280;16861;52.294;7.760;2023-04-21T12:12:44;99529.13;;;26.43;37.17
30021;BME280;16861;52.294;7.760;2023-04-21T12:15:18;99513.47;;;26.66;36.15
30021;BME280;16861;52.294;7.760;2023-04-21T12:17:47;99503.69;;;27.01;35.87
30021;BME280;16861;52.294;7.760;2023-04-21T12:20:15;99504.00;;;27.33;35.71
30021;BME280;16861;52.294;7.760;2023-04-21T12:22:42;99503.03;;;27.61;35.13
30021;BME280;16861;52.294;7.760;2023-04-21T12:25:09;99498.47;;;27.82;33.64
30021;BME280;16861;52.294;7.760;2023-04-21T12:27:36;99492.00;;;27.96;33.82
30021;BME280;16861;52.294;7.760;2023-04-21T12:30:03;99490.97;;;28.11;33.42
30021;BME280;16861;52.294;7.760;2023-04-21T12:32:30;99487.59;;;28.22;33.36
30021;BME280;16861;52.294;7.760;2023-04-21T12:34:56;99488.88;;;28.33;33.17
30021;BME280;16861;52.294;7.760;2023-04-21T12:37:23;99485.31;;;28.46;33.61
30021;BME280;16861;52.294;7.760;2023-04-21T12:39:49;99488.38;;;28.64;33.17
30021;BME280;16861;52.294;7.760;2023-04-21T12:42:16;99482.06;;;28.83;32.62
30021;BME280;16861;52.294;7.760;2023-04-21T12:44:42;99476.56;;;29.04;32.53
30021;BME280;16861;52.294;7.760;2023-04-21T12:47:09;99484.38;;;29.25;32.32
30021;BME280;16861;52.294;7.760;2023-04-21T12:49:36;99490.75;;;29.38;30.20
30021;BME280;16861;52.294;7.760;2023-04-21T12:52:03;99485.13;;;29.39;30.92
30021;BME280;16861;52.294;7.760;2023-04-21T12:54:31;99476.78;;;29.34;30.15
30021;BME280;16861;52.294;7.760;2023-04-21T12:56:58;99468.53;;;29.22;29.87
30021;BME280;16861;52.294;7.760;2023-04-21T12:59:24;99470.69;;;29.07;30.08
30021;BME280;16861;52.294;7.760;2023-04-21T13:01:51;99469.50;;;29.03;30.83
30021;BME280;16861;52.294;7.760;2023-04-21T13:04:18;99462.78;;;29.12;30.57
30021;BME280;16861;52.294;7.760;2023-04-21T13:06:45;99458.66;;;29.35;30.47
30021;BME280;16861;52.294;7.760;2023-04-21T13:09:12;99438.06;;;29.59;30.50
30021;BME280;16861;52.294;7.760;2023-04-21T13:11:38;99460.72;;;29.72;28.97